Hundvaag 1 weather for May 1997
Month no. 119
Obs.
Da.
Temp. Dew Point Precip. Wind
Speed
Wind gusts Cloud cover Press. Humidity Wind dir. Sunny OPT
01.05.1997 9,5   8,0     0          
02.05.1997 8,1   3,0     0          
03.05.1997 5,1   0,0     10       1  
04.05.1997 5,1   0,0     0          
05.05.1997 4,9   18,0     0          
06.05.1997 4,3   7,0     1          
07.05.1997 1,4   0,0     7       1  
08.05.1997 4,1   0,0     8       1  
09.05.1997 10,9   3,0     10       1  
10.05.1997 6,1   0,0     4          
11.05.1997 9,3   0,0     0          
12.05.1997 10,3   0,0     1          
13.05.1997 9,0   0,0     0          
14.05.1997 9,7   0,0     0          
15.05.1997 7,9   2,0     5       1  
16.05.1997 8,1   0,0     3          
17.05.1997 11,6   0,0     0          
18.05.1997 12,7   0,0     4          
19.05.1997 15,0   0,0     5       1  
20.05.1997 10,7   0,0     1          
21.05.1997 7,1   0,0     9       1  
22.05.1997 8,6   0,0     8       1  
23.05.1997 6,6   0,0     4          
24.05.1997 10,9   0,0     6       1  
25.05.1997 9,3   0,0     8       1  
26.05.1997 7,4   6,0     0          
27.05.1997 8,7   18,0     1          
28.05.1997 7,2   0,0     10       1  
29.05.1997 8,0   0,0     0          
30.05.1997 8,1   0,0     10       1  
31.05.1997 10,4   0,0     10       1  
Avrg/Sum 8,3   65,0     4,0       13